Weather at Meadow Creek USFS Airport

Public forecast

Using degrees Fahrenheit for public forecast. Weather courtesy of forecast.io.

Closest aviation weather report (METAR) to Meadow Creek USFS Airport

Closest report is Glacier Park International Airport, 43.6 nm (80.8 km) NW. Retrieved 2022/01/22 18:55 UTC (58 minutes ago):

KGPI 221855Z 00000KT 10SM CLR M02/M06 A3046 RMK AO2 SLP349 T10221061

Closest aviation forecast (TAF) to Meadow Creek USFS Airport

Closest forecast is Glacier Park International Airport, 43.6 nm (80.8 km) NW. Retrieved 2022/01/22 18:22 UTC (2 hours ago):

TAF KGPI 221720Z 2218/2318 27004KT P6SM OVC050 FM231100 10006KT 6SM BR OVC001